createdAt,value
2023-03-06T00:00:19.770Z,100.00
2023-03-06T00:02:46.944Z,100.00
2023-03-06T00:05:15.243Z,100.00
2023-03-06T00:07:42.807Z,100.00
2023-03-06T00:10:18.096Z,100.00
2023-03-06T00:12:45.229Z,100.00
2023-03-06T00:15:13.282Z,100.00
2023-03-06T00:17:41.334Z,100.00
2023-03-06T00:20:10.646Z,100.00
2023-03-06T00:22:37.988Z,100.00
2023-03-06T00:25:06.181Z,100.00
2023-03-06T00:27:33.614Z,100.00
2023-03-06T00:30:01.318Z,100.00
2023-03-06T00:32:28.834Z,100.00
2023-03-06T00:34:56.829Z,100.00
2023-03-06T00:37:25.349Z,100.00
2023-03-06T00:39:52.553Z,100.00
2023-03-06T00:42:20.130Z,100.00
2023-03-06T00:44:47.469Z,100.00
2023-03-06T00:47:17.437Z,100.00
2023-03-06T00:49:45.542Z,100.00
2023-03-06T00:52:13.793Z,100.00
2023-03-06T00:54:41.409Z,100.00
2023-03-06T00:57:08.763Z,100.00
2023-03-06T00:59:36.029Z,100.00
2023-03-06T01:02:03.550Z,100.00
2023-03-06T01:04:32.007Z,100.00
2023-03-06T01:06:59.283Z,100.00
2023-03-06T01:09:26.353Z,100.00
2023-03-06T01:11:54.311Z,100.00
2023-03-06T01:14:21.689Z,100.00
2023-03-06T01:16:48.890Z,100.00
2023-03-06T01:19:18.021Z,100.00
2023-03-06T01:21:46.065Z,100.00
2023-03-06T01:24:13.072Z,100.00
2023-03-06T01:26:40.093Z,100.00
2023-03-06T01:29:07.112Z,100.00
2023-03-06T01:31:34.576Z,100.00
2023-03-06T01:34:01.807Z,100.00
2023-03-06T01:36:28.810Z,100.00
2023-03-06T01:38:55.796Z,100.00
2023-03-06T01:41:23.005Z,100.00
2023-03-06T01:43:50.206Z,100.00
2023-03-06T01:46:29.388Z,100.00
2023-03-06T01:48:58.161Z,100.00
2023-03-06T01:51:30.380Z,100.00
2023-03-06T01:54:00.932Z,100.00
2023-03-06T01:56:28.938Z,100.00
2023-03-06T01:58:57.308Z,100.00
2023-03-06T02:01:24.524Z,100.00
2023-03-06T02:03:53.139Z,100.00
2023-03-06T02:06:22.040Z,100.00
2023-03-06T02:08:51.862Z,100.00
2023-03-06T02:11:22.126Z,100.00
2023-03-06T02:13:51.809Z,100.00
2023-03-06T02:16:23.994Z,100.00
2023-03-06T02:18:51.955Z,100.00
2023-03-06T02:21:25.691Z,100.00
2023-03-06T02:24:13.659Z,100.00
2023-03-06T02:26:43.551Z,100.00
2023-03-06T02:29:11.213Z,100.00
2023-03-06T02:31:38.428Z,100.00
2023-03-06T02:34:14.850Z,100.00
2023-03-06T02:37:09.734Z,100.00
2023-03-06T02:39:42.409Z,100.00
2023-03-06T02:42:09.760Z,100.00
2023-03-06T02:44:37.019Z,100.00
2023-03-06T02:47:05.124Z,100.00
2023-03-06T02:49:32.126Z,100.00
2023-03-06T02:51:59.180Z,100.00
2023-03-06T02:54:26.318Z,100.00
2023-03-06T02:56:53.345Z,100.00
2023-03-06T02:59:20.306Z,100.00
2023-03-06T03:01:48.010Z,100.00
2023-03-06T03:04:15.148Z,100.00
2023-03-06T03:06:42.730Z,100.00
2023-03-06T03:09:10.613Z,100.00
2023-03-06T03:11:37.903Z,100.00
2023-03-06T03:14:04.958Z,100.00
2023-03-06T03:16:32.114Z,100.00
2023-03-06T03:18:59.330Z,100.00
2023-03-06T03:21:27.034Z,100.00
2023-03-06T03:23:55.453Z,100.00
2023-03-06T03:26:23.175Z,100.00
2023-03-06T03:29:10.973Z,100.00
2023-03-06T03:31:37.981Z,100.00
2023-03-06T03:34:05.107Z,100.00
2023-03-06T03:36:35.671Z,100.00
2023-03-06T03:39:04.350Z,100.00
2023-03-06T03:41:32.376Z,100.00
2023-03-06T03:43:59.630Z,100.00
2023-03-06T03:46:26.894Z,100.00
2023-03-06T03:48:56.010Z,100.00
2023-03-06T03:51:23.344Z,100.00
2023-03-06T03:53:53.877Z,100.00
2023-03-06T03:56:27.628Z,100.00
2023-03-06T03:59:09.853Z,100.00
2023-03-06T04:01:44.865Z,100.00
2023-03-06T04:04:13.063Z,100.00
2023-03-06T04:06:41.660Z,100.00
2023-03-06T04:09:09.050Z,100.00
2023-03-06T04:11:37.095Z,100.00
2023-03-06T04:14:04.257Z,100.00
2023-03-06T04:16:31.818Z,100.00
2023-03-06T04:18:58.843Z,100.00
2023-03-06T04:21:26.079Z,100.00
2023-03-06T04:23:53.100Z,100.00
2023-03-06T04:26:20.631Z,100.00
2023-03-06T04:28:48.059Z,100.00
2023-03-06T04:31:15.778Z,100.00
2023-03-06T04:33:43.373Z,100.00
2023-03-06T04:36:25.186Z,100.00
2023-03-06T04:38:53.313Z,100.00
2023-03-06T04:41:20.514Z,100.00
2023-03-06T04:43:47.657Z,100.00
2023-03-06T04:46:14.801Z,100.00
2023-03-06T04:48:41.897Z,100.00
2023-03-06T04:51:08.997Z,100.00
2023-03-06T04:53:36.135Z,100.00
2023-03-06T04:56:03.138Z,100.00
2023-03-06T04:58:30.206Z,100.00
2023-03-06T05:00:57.286Z,100.00
2023-03-06T05:03:24.242Z,100.00
2023-03-06T05:05:51.258Z,100.00
2023-03-06T05:08:18.484Z,100.00
2023-03-06T05:10:45.832Z,100.00
2023-03-06T05:13:13.331Z,100.00
2023-03-06T05:15:41.135Z,100.00
2023-03-06T05:18:08.299Z,100.00
2023-03-06T05:20:35.285Z,100.00
2023-03-06T05:23:02.282Z,100.00
2023-03-06T05:25:29.294Z,100.00
2023-03-06T05:27:56.344Z,100.00
2023-03-06T05:30:23.533Z,100.00
2023-03-06T05:32:51.038Z,100.00
2023-03-06T05:35:21.247Z,100.00
2023-03-06T05:37:48.868Z,100.00
2023-03-06T05:40:16.887Z,100.00
2023-03-06T05:42:44.112Z,100.00
2023-03-06T05:45:11.966Z,100.00
2023-03-06T05:47:39.112Z,100.00
2023-03-06T05:50:08.419Z,100.00
2023-03-06T05:52:35.419Z,100.00
2023-03-06T05:55:02.480Z,100.00
2023-03-06T05:57:29.454Z,100.00
2023-03-06T05:59:56.533Z,100.00
2023-03-06T06:02:23.659Z,100.00
2023-03-06T06:04:50.740Z,100.00
2023-03-06T06:07:17.894Z,100.00
2023-03-06T06:09:48.202Z,100.00
2023-03-06T06:12:15.230Z,100.00
2023-03-06T06:14:42.259Z,100.00
2023-03-06T06:17:09.555Z,100.00
2023-03-06T06:19:36.582Z,100.00
2023-03-06T06:22:04.064Z,100.00
2023-03-06T06:24:32.069Z,100.00
2023-03-06T06:27:03.286Z,100.00
2023-03-06T06:29:31.307Z,100.00
2023-03-06T06:31:58.918Z,100.00
2023-03-06T06:34:26.350Z,100.00
2023-03-06T06:36:54.700Z,100.00
2023-03-06T06:39:23.203Z,100.00
2023-03-06T06:42:02.608Z,100.00
2023-03-06T06:44:37.460Z,100.00
2023-03-06T06:47:24.234Z,100.00
2023-03-06T06:49:53.649Z,100.00
2023-03-06T06:52:21.011Z,100.00
2023-03-06T06:54:48.185Z,100.00
2023-03-06T06:57:16.071Z,100.00
2023-03-06T06:59:43.493Z,100.00
2023-03-06T07:02:16.024Z,100.00
2023-03-06T07:05:00.764Z,100.00
2023-03-06T07:07:31.211Z,100.00
2023-03-06T07:10:00.070Z,100.00
2023-03-06T07:12:27.453Z,100.00
2023-03-06T07:14:54.415Z,100.00
2023-03-06T07:17:21.953Z,100.00
2023-03-06T07:19:49.014Z,100.00
2023-03-06T07:22:16.514Z,100.00
2023-03-06T07:24:43.753Z,100.00
2023-03-06T07:27:14.857Z,100.00
2023-03-06T07:29:45.475Z,100.00
2023-03-06T07:32:12.734Z,100.00
2023-03-06T07:34:39.939Z,100.00
2023-03-06T07:37:08.660Z,100.00
2023-03-06T07:39:35.684Z,100.00
2023-03-06T07:42:03.008Z,100.00
2023-03-06T07:44:30.206Z,100.00
2023-03-06T07:46:57.466Z,100.00
2023-03-06T07:49:24.397Z,100.00
2023-03-06T07:51:51.809Z,100.00
2023-03-06T07:54:18.797Z,100.00
2023-03-06T07:56:46.064Z,100.00
2023-03-06T07:59:13.368Z,100.00
2023-03-06T08:01:40.603Z,100.00
2023-03-06T08:04:07.642Z,100.00
2023-03-06T08:06:35.311Z,100.00
2023-03-06T08:09:02.468Z,100.00
2023-03-06T08:11:31.107Z,100.00
2023-03-06T08:13:59.284Z,100.00
2023-03-06T08:16:31.922Z,100.00
2023-03-06T08:18:59.183Z,100.00
2023-03-06T08:21:28.038Z,100.00
2023-03-06T08:23:55.392Z,99.50
2023-03-06T08:26:27.965Z,99.39
2023-03-06T08:28:56.940Z,100.00
2023-03-06T08:31:34.619Z,100.00
2023-03-06T08:34:04.889Z,98.58
2023-03-06T08:36:32.089Z,100.00
2023-03-06T08:38:59.830Z,100.00
2023-03-06T08:41:27.770Z,96.96
2023-03-06T08:43:54.974Z,97.35
2023-03-06T08:46:23.750Z,94.88
2023-03-06T08:48:50.815Z,95.50
2023-03-06T08:51:19.012Z,96.69
2023-03-06T08:53:46.776Z,99.22
2023-03-06T08:56:28.285Z,95.19
2023-03-06T08:58:58.062Z,93.99
2023-03-06T09:01:31.128Z,89.71
2023-03-06T09:04:01.625Z,91.54
2023-03-06T09:06:32.811Z,92.89
2023-03-06T09:09:00.458Z,91.08
2023-03-06T09:11:28.681Z,92.85
2023-03-06T09:13:56.702Z,92.51
2023-03-06T09:16:24.605Z,92.55
2023-03-06T09:18:54.642Z,89.55
2023-03-06T09:21:23.207Z,86.71
2023-03-06T09:23:51.295Z,85.06
2023-03-06T09:26:19.138Z,83.85
2023-03-06T09:28:46.973Z,83.41
2023-03-06T09:31:20.144Z,79.81
2023-03-06T09:33:48.438Z,80.55
2023-03-06T09:36:19.101Z,76.93
2023-03-06T09:38:48.070Z,76.07
2023-03-06T09:41:27.075Z,70.12
2023-03-06T09:44:04.907Z,74.66
2023-03-06T09:46:42.545Z,72.10
2023-03-06T09:49:23.317Z,69.10
2023-03-06T09:51:59.454Z,66.08
2023-03-06T09:54:52.462Z,63.62
2023-03-06T09:57:29.264Z,64.49
2023-03-06T09:59:59.953Z,62.89
2023-03-06T10:02:37.903Z,64.83
2023-03-06T10:05:12.608Z,64.35
2023-03-06T10:08:26.283Z,62.88
2023-03-06T10:11:02.606Z,62.23
2023-03-06T10:13:38.726Z,62.75
2023-03-06T10:16:41.917Z,62.62
2023-03-06T10:19:18.206Z,62.14
2023-03-06T10:22:01.311Z,62.77
2023-03-06T10:24:40.469Z,62.94
2023-03-06T10:27:19.046Z,62.87
2023-03-06T10:30:01.519Z,63.15
2023-03-06T10:32:49.463Z,61.71
2023-03-06T10:35:22.510Z,60.93
2023-03-06T10:37:49.849Z,60.71
2023-03-06T10:40:21.214Z,60.91
2023-03-06T10:42:50.674Z,61.56
2023-03-06T10:45:20.977Z,57.30
2023-03-06T10:47:48.153Z,60.57
2023-03-06T10:50:28.047Z,57.83
2023-03-06T10:53:16.708Z,59.92
2023-03-06T10:55:52.842Z,62.00
2023-03-06T10:58:30.169Z,59.36
2023-03-06T11:01:07.158Z,57.22
2023-03-06T11:03:36.837Z,57.35
2023-03-06T11:06:12.999Z,56.50
2023-03-06T11:08:42.958Z,59.42
2023-03-06T11:11:36.908Z,58.68
2023-03-06T11:14:16.545Z,55.90
2023-03-06T11:16:54.685Z,56.48
2023-03-06T11:19:29.020Z,58.24
2023-03-06T11:22:06.034Z,55.59
2023-03-06T11:24:43.273Z,54.95
2023-03-06T11:27:38.425Z,55.04
2023-03-06T11:30:18.429Z,56.51
2023-03-06T11:32:54.222Z,55.11
2023-03-06T11:35:26.864Z,55.09
2023-03-06T11:37:58.688Z,57.01
2023-03-06T11:40:32.270Z,56.16
2023-03-06T11:43:41.260Z,57.36
2023-03-06T11:46:22.599Z,54.55
2023-03-06T11:49:13.471Z,53.82
2023-03-06T11:51:51.968Z,55.40
2023-03-06T11:54:19.071Z,56.39
2023-03-06T11:56:48.641Z,55.07
2023-03-06T11:59:23.511Z,54.35
2023-03-06T12:02:32.935Z,53.45
2023-03-06T12:05:09.130Z,59.37
2023-03-06T12:07:48.037Z,69.30
2023-03-06T12:10:35.941Z,60.45
2023-03-06T12:13:28.022Z,54.56
2023-03-06T12:16:01.369Z,57.47
2023-03-06T12:19:02.571Z,66.99
2023-03-06T12:22:11.032Z,57.40
2023-03-06T12:24:53.534Z,77.71
2023-03-06T12:27:27.501Z,76.60
2023-03-06T12:30:15.757Z,59.19
2023-03-06T12:33:07.748Z,61.71
2023-03-06T12:36:11.675Z,70.84
2023-03-06T12:38:52.748Z,61.87
2023-03-06T12:41:41.430Z,53.69
2023-03-06T12:44:39.767Z,52.65
2023-03-06T12:47:14.003Z,53.66
2023-03-06T12:49:46.412Z,58.38
2023-03-06T12:52:30.170Z,56.62
2023-03-06T12:55:06.470Z,54.38
2023-03-06T12:57:33.933Z,51.43
2023-03-06T13:00:01.026Z,51.79
2023-03-06T13:02:31.672Z,49.96
2023-03-06T13:05:24.250Z,51.85
2023-03-06T13:08:13.770Z,53.47
2023-03-06T13:10:43.809Z,49.70
2023-03-06T13:13:43.337Z,51.90
2023-03-06T13:16:14.221Z,52.09
2023-03-06T13:18:41.233Z,52.15
2023-03-06T13:21:42.622Z,49.73
2023-03-06T13:24:37.399Z,50.41
2023-03-06T13:27:09.646Z,51.99
2023-03-06T13:29:36.603Z,50.28
2023-03-06T13:32:03.637Z,50.49
2023-03-06T13:34:40.139Z,52.73
2023-03-06T13:37:30.218Z,49.10
2023-03-06T13:39:58.572Z,48.73
2023-03-06T13:42:31.024Z,48.14
2023-03-06T13:45:06.785Z,49.37
2023-03-06T13:48:25.029Z,45.13
2023-03-06T13:50:48.794Z,46.93
2023-03-06T13:53:49.119Z,42.33
2023-03-06T13:56:47.335Z,50.94
2023-03-06T13:59:56.969Z,53.95
2023-03-06T14:03:09.305Z,57.75
2023-03-06T14:05:47.224Z,49.16
2023-03-06T14:08:17.667Z,52.03
2023-03-06T14:10:49.621Z,53.44
2023-03-06T14:13:32.318Z,52.73
2023-03-06T14:16:17.572Z,50.97
2023-03-06T14:18:51.066Z,53.55
2023-03-06T14:21:31.208Z,67.33
2023-03-06T14:24:03.768Z,55.96
2023-03-06T14:26:41.836Z,63.85
2023-03-06T14:29:23.309Z,50.90
2023-03-06T14:31:53.612Z,51.65
2023-03-06T14:34:24.229Z,51.31
2023-03-06T14:36:56.461Z,51.17
2023-03-06T14:39:32.411Z,52.45
2023-03-06T14:42:24.930Z,54.22
2023-03-06T14:45:18.884Z,55.43
2023-03-06T14:47:53.441Z,53.32
2023-03-06T14:50:28.064Z,52.41
2023-03-06T14:53:03.257Z,57.56
2023-03-06T14:55:35.203Z,55.79
2023-03-06T14:58:12.303Z,55.33
2023-03-06T15:00:46.641Z,55.82
2023-03-06T15:03:42.980Z,58.72
2023-03-06T15:06:33.447Z,57.38
2023-03-06T15:09:00.532Z,57.74
2023-03-06T15:11:41.634Z,60.09
2023-03-06T15:14:18.912Z,60.51
2023-03-06T15:16:46.023Z,63.63
2023-03-06T15:19:39.887Z,66.56
2023-03-06T15:22:20.906Z,68.53
2023-03-06T15:24:47.990Z,69.41
2023-03-06T15:27:20.229Z,71.01
2023-03-06T15:29:47.249Z,74.01
2023-03-06T15:32:36.006Z,71.53
2023-03-06T15:35:24.540Z,73.54
2023-03-06T15:37:52.261Z,73.42
2023-03-06T15:40:24.697Z,74.68
2023-03-06T15:42:52.248Z,72.32
2023-03-06T15:45:22.078Z,73.42
2023-03-06T15:47:50.816Z,72.57
2023-03-06T15:50:23.307Z,71.46
2023-03-06T15:52:51.013Z,68.76
2023-03-06T15:55:21.019Z,69.81
2023-03-06T15:57:52.622Z,68.40
2023-03-06T16:00:32.685Z,68.87
2023-03-06T16:03:00.286Z,69.31
2023-03-06T16:05:28.951Z,69.84
2023-03-06T16:07:56.779Z,69.68
2023-03-06T16:10:26.855Z,70.88
2023-03-06T16:13:02.633Z,68.92
2023-03-06T16:15:33.346Z,70.16
2023-03-06T16:18:00.444Z,72.12
2023-03-06T16:20:29.399Z,76.10
2023-03-06T16:22:56.935Z,82.46
2023-03-06T16:25:26.858Z,99.78
2023-03-06T16:27:59.820Z,84.92
2023-03-06T16:30:32.401Z,80.88
2023-03-06T16:33:00.189Z,80.52
2023-03-06T16:35:27.586Z,79.86
2023-03-06T16:37:54.780Z,79.85
2023-03-06T16:40:29.240Z,78.80
2023-03-06T16:42:56.946Z,81.97
2023-03-06T16:45:24.747Z,81.93
2023-03-06T16:47:52.467Z,83.78
2023-03-06T16:50:36.543Z,84.91
2023-03-06T16:53:04.353Z,85.31
2023-03-06T16:55:33.882Z,86.37
2023-03-06T16:58:00.939Z,88.30
2023-03-06T17:00:33.371Z,88.24
2023-03-06T17:03:01.850Z,93.40
2023-03-06T17:05:33.338Z,91.55
2023-03-06T17:08:00.508Z,94.27
2023-03-06T17:10:27.608Z,97.04
2023-03-06T17:12:55.987Z,96.31
2023-03-06T17:15:23.192Z,94.39
2023-03-06T17:17:51.834Z,95.50
2023-03-06T17:20:19.684Z,96.86
2023-03-06T17:22:46.745Z,97.50
2023-03-06T17:25:13.890Z,97.92
2023-03-06T17:27:41.044Z,96.23
2023-03-06T17:30:08.619Z,98.19
2023-03-06T17:32:37.809Z,92.42
2023-03-06T17:35:05.407Z,95.59
2023-03-06T17:37:32.542Z,94.64
2023-03-06T17:39:59.709Z,96.05
2023-03-06T17:42:26.820Z,97.18
2023-03-06T17:44:53.921Z,97.09
2023-03-06T17:47:20.914Z,96.00
2023-03-06T17:49:47.895Z,97.52
2023-03-06T17:52:14.997Z,97.14
2023-03-06T17:54:42.096Z,95.84
2023-03-06T17:57:09.167Z,97.11
2023-03-06T17:59:36.302Z,95.94
2023-03-06T18:02:03.996Z,97.78
2023-03-06T18:04:31.256Z,100.00
2023-03-06T18:06:58.576Z,100.00
2023-03-06T18:09:25.675Z,100.00
2023-03-06T18:11:53.031Z,100.00
2023-03-06T18:14:20.146Z,100.00
2023-03-06T18:16:47.422Z,100.00
2023-03-06T18:19:14.895Z,100.00
2023-03-06T18:21:42.108Z,100.00
2023-03-06T18:24:11.569Z,100.00
2023-03-06T18:26:42.564Z,100.00
2023-03-06T18:29:09.744Z,100.00
2023-03-06T18:31:39.414Z,100.00
2023-03-06T18:34:18.010Z,100.00
2023-03-06T18:36:47.698Z,100.00
2023-03-06T18:39:16.014Z,100.00
2023-03-06T18:41:43.251Z,100.00
2023-03-06T18:44:14.795Z,100.00
2023-03-06T18:46:42.294Z,100.00
2023-03-06T18:49:10.565Z,100.00
2023-03-06T18:51:37.685Z,100.00
2023-03-06T18:54:06.629Z,100.00
2023-03-06T18:56:34.308Z,100.00
2023-03-06T18:59:06.763Z,100.00
2023-03-06T19:01:34.470Z,100.00
2023-03-06T19:04:03.519Z,100.00
2023-03-06T19:06:33.711Z,100.00
2023-03-06T19:09:02.444Z,100.00
2023-03-06T19:11:30.039Z,100.00
2023-03-06T19:13:57.224Z,100.00
2023-03-06T19:16:27.856Z,100.00
2023-03-06T19:18:56.219Z,100.00
2023-03-06T19:21:26.377Z,100.00
2023-03-06T19:23:53.996Z,100.00
2023-03-06T19:26:21.202Z,100.00
2023-03-06T19:28:48.634Z,100.00
2023-03-06T19:31:20.328Z,100.00
2023-03-06T19:33:49.382Z,100.00
2023-03-06T19:36:17.475Z,100.00
2023-03-06T19:38:44.543Z,100.00
2023-03-06T19:41:13.828Z,100.00
2023-03-06T19:43:44.038Z,100.00
2023-03-06T19:46:13.160Z,100.00
2023-03-06T19:48:41.382Z,100.00
2023-03-06T19:51:09.109Z,100.00
2023-03-06T19:53:36.929Z,100.00
2023-03-06T19:56:05.074Z,100.00
2023-03-06T19:58:32.147Z,100.00
2023-03-06T20:01:25.354Z,100.00
2023-03-06T20:03:59.860Z,100.00
2023-03-06T20:06:37.764Z,100.00
2023-03-06T20:09:08.326Z,100.00
2023-03-06T20:11:39.101Z,100.00
2023-03-06T20:14:08.123Z,100.00
2023-03-06T20:16:36.070Z,100.00
2023-03-06T20:19:03.834Z,100.00
2023-03-06T20:21:35.591Z,100.00
2023-03-06T20:24:08.098Z,100.00
2023-03-06T20:26:36.936Z,100.00
2023-03-06T20:29:04.300Z,100.00
2023-03-06T20:31:31.564Z,100.00
2023-03-06T20:33:59.901Z,100.00
2023-03-06T20:36:29.960Z,100.00
2023-03-06T20:39:00.320Z,100.00
2023-03-06T20:41:29.313Z,100.00
2023-03-06T20:43:58.534Z,100.00
2023-03-06T20:46:29.159Z,100.00
2023-03-06T20:48:58.251Z,100.00
2023-03-06T20:51:28.921Z,100.00
2023-03-06T20:53:56.618Z,100.00
2023-03-06T20:56:26.803Z,100.00
2023-03-06T20:58:54.364Z,100.00
2023-03-06T21:01:29.488Z,100.00
2023-03-06T21:03:57.974Z,100.00
2023-03-06T21:06:26.827Z,100.00
2023-03-06T21:08:54.810Z,100.00
2023-03-06T21:11:22.321Z,100.00
2023-03-06T21:13:49.721Z,100.00
2023-03-06T21:16:19.542Z,100.00
2023-03-06T21:18:47.912Z,100.00
2023-03-06T21:21:18.660Z,100.00
2023-03-06T21:23:47.372Z,100.00
2023-03-06T21:26:17.469Z,100.00
2023-03-06T21:28:44.731Z,100.00
2023-03-06T21:31:13.575Z,100.00
2023-03-06T21:33:41.067Z,100.00
2023-03-06T21:36:09.202Z,100.00
2023-03-06T21:38:36.656Z,100.00
2023-03-06T21:41:15.934Z,100.00
2023-03-06T21:43:43.719Z,100.00
2023-03-06T21:46:11.737Z,100.00
2023-03-06T21:48:42.428Z,100.00
2023-03-06T21:51:13.367Z,100.00
2023-03-06T21:53:47.767Z,100.00
2023-03-06T21:56:17.965Z,100.00
2023-03-06T21:58:46.092Z,100.00
2023-03-06T22:01:22.894Z,100.00
2023-03-06T22:03:50.785Z,100.00
2023-03-06T22:06:27.997Z,100.00
2023-03-06T22:08:56.690Z,100.00
2023-03-06T22:11:25.335Z,100.00
2023-03-06T22:13:55.876Z,100.00
2023-03-06T22:16:23.431Z,100.00
2023-03-06T22:18:52.028Z,100.00
2023-03-06T22:21:21.949Z,100.00
2023-03-06T22:23:54.189Z,100.00
2023-03-06T22:26:21.849Z,100.00
2023-03-06T22:28:49.345Z,100.00
2023-03-06T22:31:24.428Z,100.00
2023-03-06T22:33:53.295Z,100.00
2023-03-06T22:36:21.623Z,100.00
2023-03-06T22:38:49.765Z,100.00
2023-03-06T22:41:17.696Z,100.00
2023-03-06T22:43:45.043Z,100.00
2023-03-06T22:46:15.138Z,100.00
2023-03-06T22:48:42.756Z,100.00
2023-03-06T22:51:12.713Z,100.00
2023-03-06T22:53:40.665Z,100.00
2023-03-06T22:56:11.021Z,100.00
2023-03-06T22:58:38.865Z,100.00
2023-03-06T23:01:12.622Z,100.00
2023-03-06T23:03:42.889Z,100.00
2023-03-06T23:06:12.827Z,100.00
2023-03-06T23:08:40.865Z,100.00
2023-03-06T23:11:13.832Z,100.00
2023-03-06T23:13:59.749Z,100.00
2023-03-06T23:16:46.210Z,100.00
2023-03-06T23:19:31.997Z,100.00
2023-03-06T23:22:18.803Z,100.00
2023-03-06T23:25:04.684Z,100.00
2023-03-06T23:27:32.410Z,100.00
2023-03-06T23:29:59.938Z,100.00
2023-03-06T23:32:27.002Z,100.00
2023-03-06T23:34:54.741Z,100.00
2023-03-06T23:37:21.698Z,100.00
2023-03-06T23:39:49.055Z,100.00
2023-03-06T23:42:16.378Z,100.00
2023-03-06T23:44:43.910Z,100.00
2023-03-06T23:47:10.891Z,100.00
2023-03-06T23:49:40.178Z,100.00
2023-03-06T23:52:07.228Z,100.00
2023-03-06T23:54:34.603Z,100.00
2023-03-06T23:57:01.675Z,100.00
2023-03-06T23:59:28.799Z,100.00
